sensor_id;sensor_type;location;lat;lon;timestamp;temperature;humidity
40374;DHT22;26079;45.958;12.492;2022-12-18T00:01:30;4.60;99.90
40374;DHT22;26079;45.958;12.492;2022-12-18T00:03:57;4.60;99.50
40374;DHT22;26079;45.958;12.492;2022-12-18T00:06:25;4.60;98.00
40374;DHT22;26079;45.958;12.492;2022-12-18T00:08:51;4.60;97.70
40374;DHT22;26079;45.958;12.492;2022-12-18T00:11:21;4.70;96.00
40374;DHT22;26079;45.958;12.492;2022-12-18T00:13:47;4.80;96.40
40374;DHT22;26079;45.958;12.492;2022-12-18T00:16:18;4.90;95.20
40374;DHT22;26079;45.958;12.492;2022-12-18T00:18:49;4.90;96.00
40374;DHT22;26079;45.958;12.492;2022-12-18T00:21:15;4.90;95.30
40374;DHT22;26079;45.958;12.492;2022-12-18T00:23:42;4.90;94.80
40374;DHT22;26079;45.958;12.492;2022-12-18T00:26:14;4.90;95.10
40374;DHT22;26079;45.958;12.492;2022-12-18T00:28:41;4.90;96.40
40374;DHT22;26079;45.958;12.492;2022-12-18T00:31:10;4.90;95.80
40374;DHT22;26079;45.958;12.492;2022-12-18T00:33:36;4.90;95.60
40374;DHT22;26079;45.958;12.492;2022-12-18T00:36:10;4.90;95.10
40374;DHT22;26079;45.958;12.492;2022-12-18T00:38:37;4.90;93.90
40374;DHT22;26079;45.958;12.492;2022-12-18T00:41:06;4.90;94.60
40374;DHT22;26079;45.958;12.492;2022-12-18T00:43:35;4.90;92.80
40374;DHT22;26079;45.958;12.492;2022-12-18T00:46:01;4.90;91.50
40374;DHT22;26079;45.958;12.492;2022-12-18T00:48:27;4.90;92.10
40374;DHT22;26079;45.958;12.492;2022-12-18T00:50:58;4.80;92.40
40374;DHT22;26079;45.958;12.492;2022-12-18T00:53:24;4.80;91.70
40374;DHT22;26079;45.958;12.492;2022-12-18T00:55:50;4.80;91.40
40374;DHT22;26079;45.958;12.492;2022-12-18T00:58:16;4.80;91.40
40374;DHT22;26079;45.958;12.492;2022-12-18T01:00:42;4.80;91.00
40374;DHT22;26079;45.958;12.492;2022-12-18T01:03:10;4.70;91.60
40374;DHT22;26079;45.958;12.492;2022-12-18T01:05:41;4.70;93.40
40374;DHT22;26079;45.958;12.492;2022-12-18T01:08:07;4.60;93.40
40374;DHT22;26079;45.958;12.492;2022-12-18T01:10:33;4.60;94.10
40374;DHT22;26079;45.958;12.492;2022-12-18T01:12:59;4.50;93.00
40374;DHT22;26079;45.958;12.492;2022-12-18T01:15:24;4.50;93.80
40374;DHT22;26079;45.958;12.492;2022-12-18T01:17:53;4.50;92.70
40374;DHT22;26079;45.958;12.492;2022-12-18T01:20:19;4.50;94.40
40374;DHT22;26079;45.958;12.492;2022-12-18T01:22:47;4.40;93.60
40374;DHT22;26079;45.958;12.492;2022-12-18T01:25:13;4.40;95.20
40374;DHT22;26079;45.958;12.492;2022-12-18T01:27:39;4.40;95.70
40374;DHT22;26079;45.958;12.492;2022-12-18T01:30:05;4.30;96.00
40374;DHT22;26079;45.958;12.492;2022-12-18T01:32:31;4.30;96.00
40374;DHT22;26079;45.958;12.492;2022-12-18T01:34:57;4.20;96.90
40374;DHT22;26079;45.958;12.492;2022-12-18T01:37:23;4.20;98.00
40374;DHT22;26079;45.958;12.492;2022-12-18T01:39:49;4.20;96.60
40374;DHT22;26079;45.958;12.492;2022-12-18T01:42:19;4.20;96.60
40374;DHT22;26079;45.958;12.492;2022-12-18T01:44:53;4.10;96.40
40374;DHT22;26079;45.958;12.492;2022-12-18T01:47:55;4.10;95.00
40374;DHT22;26079;45.958;12.492;2022-12-18T01:55:28;4.10;99.10
40374;DHT22;26079;45.958;12.492;2022-12-18T01:57:56;4.00;99.90
40374;DHT22;26079;45.958;12.492;2022-12-18T02:00:27;4.00;99.90
40374;DHT22;26079;45.958;12.492;2022-12-18T02:02:53;3.90;99.90
40374;DHT22;26079;45.958;12.492;2022-12-18T02:05:44;3.80;99.90
40374;DHT22;26079;45.958;12.492;2022-12-18T02:08:30;3.70;99.90
40374;DHT22;26079;45.958;12.492;2022-12-18T02:13:57;3.50;99.90
40374;DHT22;26079;45.958;12.492;2022-12-18T02:16:47;3.50;99.90
40374;DHT22;26079;45.958;12.492;2022-12-18T02:28:01;3.30;99.90
40374;DHT22;26079;45.958;12.492;2022-12-18T02:30:34;3.30;99.90
40374;DHT22;26079;45.958;12.492;2022-12-18T02:33:01;3.30;99.90
40374;DHT22;26079;45.958;12.492;2022-12-18T02:35:32;3.30;99.90
40374;DHT22;26079;45.958;12.492;2022-12-18T02:37:58;3.30;99.90
40374;DHT22;26079;45.958;12.492;2022-12-18T02:40:26;3.20;99.90
40374;DHT22;26079;45.958;12.492;2022-12-18T02:42:55;3.20;99.90
40374;DHT22;26079;45.958;12.492;2022-12-18T02:45:31;3.20;99.90
40374;DHT22;26079;45.958;12.492;2022-12-18T02:47:57;3.10;99.90
40374;DHT22;26079;45.958;12.492;2022-12-18T02:50:34;3.10;99.90
40374;DHT22;26079;45.958;12.492;2022-12-18T02:56:23;2.90;99.90
40374;DHT22;26079;45.958;12.492;2022-12-18T02:58:55;2.90;99.90
40374;DHT22;26079;45.958;12.492;2022-12-18T03:04:26;2.90;99.90
40374;DHT22;26079;45.958;12.492;2022-12-18T03:06:59;2.80;99.90
40374;DHT22;26079;45.958;12.492;2022-12-18T03:09:34;2.80;99.90
40374;DHT22;26079;45.958;12.492;2022-12-18T03:15:22;2.80;99.90
40374;DHT22;26079;45.958;12.492;2022-12-18T03:18:21;2.80;99.90
40374;DHT22;26079;45.958;12.492;2022-12-18T03:20:53;2.90;99.90
40374;DHT22;26079;45.958;12.492;2022-12-18T03:23:24;2.90;99.90
40374;DHT22;26079;45.958;12.492;2022-12-18T03:25:53;2.90;99.90
40374;DHT22;26079;45.958;12.492;2022-12-18T03:28:21;2.90;99.90
40374;DHT22;26079;45.958;12.492;2022-12-18T03:30:51;2.90;99.90
40374;DHT22;26079;45.958;12.492;2022-12-18T03:33:26;2.90;99.90
40374;DHT22;26079;45.958;12.492;2022-12-18T03:35:52;2.90;99.90
40374;DHT22;26079;45.958;12.492;2022-12-18T03:38:18;2.90;99.90
40374;DHT22;26079;45.958;12.492;2022-12-18T03:41:04;2.90;99.90
40374;DHT22;26079;45.958;12.492;2022-12-18T03:43:42;2.90;99.90
40374;DHT22;26079;45.958;12.492;2022-12-18T03:46:30;2.80;99.90
40374;DHT22;26079;45.958;12.492;2022-12-18T03:52:07;2.80;99.90
40374;DHT22;26079;45.958;12.492;2022-12-18T03:54:35;2.80;99.90
40374;DHT22;26079;45.958;12.492;2022-12-18T03:57:13;2.80;99.90
40374;DHT22;26079;45.958;12.492;2022-12-18T03:59:41;2.80;99.90
40374;DHT22;26079;45.958;12.492;2022-12-18T04:02:11;2.70;99.90
40374;DHT22;26079;45.958;12.492;2022-12-18T04:04:38;2.70;99.90
40374;DHT22;26079;45.958;12.492;2022-12-18T04:07:05;2.70;99.90
40374;DHT22;26079;45.958;12.492;2022-12-18T04:09:35;2.70;99.90
40374;DHT22;26079;45.958;12.492;2022-12-18T04:12:02;2.60;99.90
40374;DHT22;26079;45.958;12.492;2022-12-18T04:14:28;2.60;99.90
40374;DHT22;26079;45.958;12.492;2022-12-18T04:16:53;2.50;99.90
40374;DHT22;26079;45.958;12.492;2022-12-18T04:19:19;2.40;99.90
40374;DHT22;26079;45.958;12.492;2022-12-18T04:21:45;2.40;99.90
40374;DHT22;26079;45.958;12.492;2022-12-18T04:24:10;2.30;99.90
40374;DHT22;26079;45.958;12.492;2022-12-18T04:26:36;2.30;99.90
40374;DHT22;26079;45.958;12.492;2022-12-18T04:29:02;2.30;99.90
40374;DHT22;26079;45.958;12.492;2022-12-18T04:31:30;2.30;99.90
40374;DHT22;26079;45.958;12.492;2022-12-18T04:33:56;2.40;99.90
40374;DHT22;26079;45.958;12.492;2022-12-18T04:36:22;2.40;99.90
40374;DHT22;26079;45.958;12.492;2022-12-18T04:38:47;2.40;99.90
40374;DHT22;26079;45.958;12.492;2022-12-18T04:41:13;2.50;99.90
40374;DHT22;26079;45.958;12.492;2022-12-18T04:43:39;2.50;99.90
40374;DHT22;26079;45.958;12.492;2022-12-18T04:46:06;2.60;99.90
40374;DHT22;26079;45.958;12.492;2022-12-18T04:48:33;2.60;99.90
40374;DHT22;26079;45.958;12.492;2022-12-18T04:50:59;2.50;99.90
40374;DHT22;26079;45.958;12.492;2022-12-18T04:53:24;2.50;99.90
40374;DHT22;26079;45.958;12.492;2022-12-18T04:55:50;2.50;99.90
40374;DHT22;26079;45.958;12.492;2022-12-18T04:58:16;2.50;99.90
40374;DHT22;26079;45.958;12.492;2022-12-18T05:00:43;2.50;99.90
40374;DHT22;26079;45.958;12.492;2022-12-18T05:03:08;2.50;99.90
40374;DHT22;26079;45.958;12.492;2022-12-18T05:05:35;2.50;99.90
40374;DHT22;26079;45.958;12.492;2022-12-18T05:08:00;2.40;99.90
40374;DHT22;26079;45.958;12.492;2022-12-18T05:10:26;2.40;99.90
40374;DHT22;26079;45.958;12.492;2022-12-18T05:12:52;2.40;99.90
40374;DHT22;26079;45.958;12.492;2022-12-18T05:15:30;2.40;99.90
40374;DHT22;26079;45.958;12.492;2022-12-18T05:17:56;2.30;99.90
40374;DHT22;26079;45.958;12.492;2022-12-18T05:20:23;2.30;99.90
40374;DHT22;26079;45.958;12.492;2022-12-18T05:22:49;2.30;99.90
40374;DHT22;26079;45.958;12.492;2022-12-18T05:25:14;2.20;99.90
40374;DHT22;26079;45.958;12.492;2022-12-18T05:27:40;2.10;99.90
40374;DHT22;26079;45.958;12.492;2022-12-18T05:30:06;2.20;99.90
40374;DHT22;26079;45.958;12.492;2022-12-18T05:32:33;2.10;99.90
40374;DHT22;26079;45.958;12.492;2022-12-18T05:34:58;2.10;99.90
40374;DHT22;26079;45.958;12.492;2022-12-18T05:37:24;2.10;99.90
40374;DHT22;26079;45.958;12.492;2022-12-18T05:39:49;2.10;99.90
40374;DHT22;26079;45.958;12.492;2022-12-18T05:42:15;2.00;99.90
40374;DHT22;26079;45.958;12.492;2022-12-18T05:44:43;1.90;99.90
40374;DHT22;26079;45.958;12.492;2022-12-18T05:47:09;1.90;99.90
40374;DHT22;26079;45.958;12.492;2022-12-18T05:49:35;1.80;99.90
40374;DHT22;26079;45.958;12.492;2022-12-18T05:52:01;1.80;99.90
40374;DHT22;26079;45.958;12.492;2022-12-18T05:54:27;1.80;99.90
40374;DHT22;26079;45.958;12.492;2022-12-18T05:56:56;1.80;99.90
40374;DHT22;26079;45.958;12.492;2022-12-18T05:59:22;1.80;99.90
40374;DHT22;26079;45.958;12.492;2022-12-18T06:01:48;1.70;99.90
40374;DHT22;26079;45.958;12.492;2022-12-18T06:04:14;1.70;99.90
40374;DHT22;26079;45.958;12.492;2022-12-18T06:06:40;1.60;99.90
40374;DHT22;26079;45.958;12.492;2022-12-18T06:09:09;1.60;99.90
40374;DHT22;26079;45.958;12.492;2022-12-18T06:11:38;1.60;99.90
40374;DHT22;26079;45.958;12.492;2022-12-18T06:14:05;1.60;99.90
40374;DHT22;26079;45.958;12.492;2022-12-18T06:16:34;1.60;99.90
40374;DHT22;26079;45.958;12.492;2022-12-18T06:19:01;1.60;99.90
40374;DHT22;26079;45.958;12.492;2022-12-18T06:21:28;1.50;99.90
40374;DHT22;26079;45.958;12.492;2022-12-18T06:23:57;1.50;99.90
40374;DHT22;26079;45.958;12.492;2022-12-18T06:26:25;1.50;99.90
40374;DHT22;26079;45.958;12.492;2022-12-18T06:28:51;1.50;99.90
40374;DHT22;26079;45.958;12.492;2022-12-18T06:31:17;1.50;99.90
40374;DHT22;26079;45.958;12.492;2022-12-18T06:33:42;1.50;99.90
40374;DHT22;26079;45.958;12.492;2022-12-18T06:36:10;1.50;99.90
40374;DHT22;26079;45.958;12.492;2022-12-18T06:38:41;1.40;99.90
40374;DHT22;26079;45.958;12.492;2022-12-18T06:41:19;1.40;99.90
40374;DHT22;26079;45.958;12.492;2022-12-18T06:43:45;1.30;99.90
40374;DHT22;26079;45.958;12.492;2022-12-18T06:46:11;1.30;99.90
40374;DHT22;26079;45.958;12.492;2022-12-18T06:48:37;1.30;99.90
40374;DHT22;26079;45.958;12.492;2022-12-18T06:51:03;1.40;99.90
40374;DHT22;26079;45.958;12.492;2022-12-18T06:53:29;1.40;99.90
40374;DHT22;26079;45.958;12.492;2022-12-18T06:56:06;1.40;99.90
40374;DHT22;26079;45.958;12.492;2022-12-18T06:58:34;1.30;99.90
40374;DHT22;26079;45.958;12.492;2022-12-18T07:01:04;1.30;99.90
40374;DHT22;26079;45.958;12.492;2022-12-18T07:03:30;1.40;99.90
40374;DHT22;26079;45.958;12.492;2022-12-18T07:05:59;1.30;99.90
40374;DHT22;26079;45.958;12.492;2022-12-18T07:08:25;1.30;99.90
40374;DHT22;26079;45.958;12.492;2022-12-18T07:10:50;1.40;99.90
40374;DHT22;26079;45.958;12.492;2022-12-18T07:13:17;1.30;99.90
40374;DHT22;26079;45.958;12.492;2022-12-18T07:15:43;1.40;99.90
40374;DHT22;26079;45.958;12.492;2022-12-18T07:18:12;1.40;99.90
40374;DHT22;26079;45.958;12.492;2022-12-18T07:20:37;1.40;99.90
40374;DHT22;26079;45.958;12.492;2022-12-18T07:23:04;1.40;99.90
40374;DHT22;26079;45.958;12.492;2022-12-18T07:25:34;1.50;99.90
40374;DHT22;26079;45.958;12.492;2022-12-18T07:28:00;1.50;99.90
40374;DHT22;26079;45.958;12.492;2022-12-18T07:30:26;1.60;99.90
40374;DHT22;26079;45.958;12.492;2022-12-18T07:32:54;1.50;99.90
40374;DHT22;26079;45.958;12.492;2022-12-18T07:35:20;1.60;99.90
40374;DHT22;26079;45.958;12.492;2022-12-18T07:37:48;1.60;99.90
40374;DHT22;26079;45.958;12.492;2022-12-18T07:40:13;1.70;99.90
40374;DHT22;26079;45.958;12.492;2022-12-18T07:42:39;1.70;99.90
40374;DHT22;26079;45.958;12.492;2022-12-18T07:45:05;1.80;99.90
40374;DHT22;26079;45.958;12.492;2022-12-18T07:47:37;1.80;99.90
40374;DHT22;26079;45.958;12.492;2022-12-18T07:50:06;1.80;99.90
40374;DHT22;26079;45.958;12.492;2022-12-18T07:52:32;1.80;99.90
40374;DHT22;26079;45.958;12.492;2022-12-18T07:54:57;1.90;99.90
40374;DHT22;26079;45.958;12.492;2022-12-18T07:57:23;2.00;99.90
40374;DHT22;26079;45.958;12.492;2022-12-18T07:59:49;2.00;99.90
40374;DHT22;26079;45.958;12.492;2022-12-18T08:02:14;2.00;99.90
40374;DHT22;26079;45.958;12.492;2022-12-18T08:04:40;2.10;99.90
40374;DHT22;26079;45.958;12.492;2022-12-18T08:07:06;2.10;99.90
40374;DHT22;26079;45.958;12.492;2022-12-18T08:09:31;2.20;99.90
40374;DHT22;26079;45.958;12.492;2022-12-18T08:11:57;2.20;99.90
40374;DHT22;26079;45.958;12.492;2022-12-18T08:14:25;2.20;99.90
40374;DHT22;26079;45.958;12.492;2022-12-18T08:16:51;2.20;99.90
40374;DHT22;26079;45.958;12.492;2022-12-18T08:19:17;2.30;99.90
40374;DHT22;26079;45.958;12.492;2022-12-18T08:21:42;2.30;99.90
40374;DHT22;26079;45.958;12.492;2022-12-18T08:24:09;2.40;99.90
40374;DHT22;26079;45.958;12.492;2022-12-18T08:26:35;2.50;99.90
40374;DHT22;26079;45.958;12.492;2022-12-18T08:29:01;2.50;99.90
40374;DHT22;26079;45.958;12.492;2022-12-18T08:31:28;2.50;99.90
40374;DHT22;26079;45.958;12.492;2022-12-18T08:33:55;2.60;99.90
40374;DHT22;26079;45.958;12.492;2022-12-18T08:36:21;2.60;99.90
40374;DHT22;26079;45.958;12.492;2022-12-18T08:38:50;2.60;99.90
40374;DHT22;26079;45.958;12.492;2022-12-18T08:41:17;2.80;99.90
40374;DHT22;26079;45.958;12.492;2022-12-18T08:43:42;3.00;99.90
40374;DHT22;26079;45.958;12.492;2022-12-18T08:46:32;3.10;99.90
40374;DHT22;26079;45.958;12.492;2022-12-18T08:48:58;3.20;99.90
40374;DHT22;26079;45.958;12.492;2022-12-18T08:51:26;3.40;99.90
40374;DHT22;26079;45.958;12.492;2022-12-18T08:53:52;3.50;99.90
40374;DHT22;26079;45.958;12.492;2022-12-18T08:56:18;3.70;99.90
40374;DHT22;26079;45.958;12.492;2022-12-18T08:58:43;3.70;99.90
40374;DHT22;26079;45.958;12.492;2022-12-18T09:01:11;3.80;99.90
40374;DHT22;26079;45.958;12.492;2022-12-18T09:03:37;3.90;99.90
40374;DHT22;26079;45.958;12.492;2022-12-18T09:06:04;3.90;99.90
40374;DHT22;26079;45.958;12.492;2022-12-18T09:08:30;4.00;99.90
40374;DHT22;26079;45.958;12.492;2022-12-18T09:10:56;4.00;99.90
40374;DHT22;26079;45.958;12.492;2022-12-18T09:13:22;4.00;99.90
40374;DHT22;26079;45.958;12.492;2022-12-18T09:15:50;4.00;99.90
40374;DHT22;26079;45.958;12.492;2022-12-18T09:18:17;4.10;99.90
40374;DHT22;26079;45.958;12.492;2022-12-18T09:20:46;4.10;99.90
40374;DHT22;26079;45.958;12.492;2022-12-18T09:23:12;4.20;99.90
40374;DHT22;26079;45.958;12.492;2022-12-18T09:25:39;4.30;99.90
40374;DHT22;26079;45.958;12.492;2022-12-18T09:28:16;4.40;99.90
40374;DHT22;26079;45.958;12.492;2022-12-18T09:30:47;4.40;99.90
40374;DHT22;26079;45.958;12.492;2022-12-18T09:33:14;4.40;99.20
40374;DHT22;26079;45.958;12.492;2022-12-18T09:35:41;4.50;98.30
40374;DHT22;26079;45.958;12.492;2022-12-18T09:38:08;4.60;97.70
40374;DHT22;26079;45.958;12.492;2022-12-18T09:41:27;4.60;95.50
40374;DHT22;26079;45.958;12.492;2022-12-18T09:46:02;4.70;95.80
40374;DHT22;26079;45.958;12.492;2022-12-18T09:48:34;4.80;95.10
40374;DHT22;26079;45.958;12.492;2022-12-18T09:51:04;4.90;94.20
40374;DHT22;26079;45.958;12.492;2022-12-18T09:53:34;5.00;92.40
40374;DHT22;26079;45.958;12.492;2022-12-18T09:56:01;5.10;92.40
40374;DHT22;26079;45.958;12.492;2022-12-18T09:58:36;5.10;92.20
40374;DHT22;26079;45.958;12.492;2022-12-18T10:01:18;5.20;91.50
40374;DHT22;26079;45.958;12.492;2022-12-18T10:03:46;5.20;90.40
40374;DHT22;26079;45.958;12.492;2022-12-18T10:07:02;5.30;90.20
40374;DHT22;26079;45.958;12.492;2022-12-18T10:09:23;5.40;89.50
40374;DHT22;26079;45.958;12.492;2022-12-18T10:12:02;5.50;91.10
40374;DHT22;26079;45.958;12.492;2022-12-18T10:15:10;5.50;89.90
40374;DHT22;26079;45.958;12.492;2022-12-18T10:17:54;5.50;89.20
40374;DHT22;26079;45.958;12.492;2022-12-18T10:23:08;5.60;88.80
40374;DHT22;26079;45.958;12.492;2022-12-18T10:26:06;5.70;88.20
40374;DHT22;26079;45.958;12.492;2022-12-18T10:28:35;5.70;88.00
40374;DHT22;26079;45.958;12.492;2022-12-18T10:31:01;5.80;88.30
40374;DHT22;26079;45.958;12.492;2022-12-18T10:33:31;5.80;88.30
40374;DHT22;26079;45.958;12.492;2022-12-18T10:35:58;5.80;89.20
40374;DHT22;26079;45.958;12.492;2022-12-18T10:38:27;5.80;89.40
40374;DHT22;26079;45.958;12.492;2022-12-18T10:43:29;5.90;91.50
40374;DHT22;26079;45.958;12.492;2022-12-18T10:48:27;6.30;88.90
40374;DHT22;26079;45.958;12.492;2022-12-18T10:50:53;6.40;88.30
40374;DHT22;26079;45.958;12.492;2022-12-18T10:53:28;6.40;87.50
40374;DHT22;26079;45.958;12.492;2022-12-18T10:55:57;6.40;88.00
40374;DHT22;26079;45.958;12.492;2022-12-18T10:58:32;6.40;86.20
40374;DHT22;26079;45.958;12.492;2022-12-18T11:01:12;6.50;87.80
40374;DHT22;26079;45.958;12.492;2022-12-18T11:03:44;6.50;86.60
40374;DHT22;26079;45.958;12.492;2022-12-18T11:06:13;6.60;86.30
40374;DHT22;26079;45.958;12.492;2022-12-18T11:08:41;6.60;87.30
40374;DHT22;26079;45.958;12.492;2022-12-18T11:11:22;6.60;85.00
40374;DHT22;26079;45.958;12.492;2022-12-18T11:14:06;6.60;86.10
40374;DHT22;26079;45.958;12.492;2022-12-18T11:16:45;6.60;84.40
40374;DHT22;26079;45.958;12.492;2022-12-18T11:19:28;6.60;85.20
40374;DHT22;26079;45.958;12.492;2022-12-18T11:21:55;6.60;85.30
40374;DHT22;26079;45.958;12.492;2022-12-18T11:26:47;6.60;84.20
40374;DHT22;26079;45.958;12.492;2022-12-18T11:29:26;6.70;86.10
40374;DHT22;26079;45.958;12.492;2022-12-18T11:34:44;6.70;85.70
40374;DHT22;26079;45.958;12.492;2022-12-18T11:37:11;6.80;85.40
40374;DHT22;26079;45.958;12.492;2022-12-18T11:39:49;6.70;86.30
40374;DHT22;26079;45.958;12.492;2022-12-18T11:42:50;6.60;84.40
40374;DHT22;26079;45.958;12.492;2022-12-18T11:50:24;6.50;85.50
40374;DHT22;26079;45.958;12.492;2022-12-18T11:52:50;6.60;85.90
40374;DHT22;26079;45.958;12.492;2022-12-18T11:55:28;6.50;86.00
40374;DHT22;26079;45.958;12.492;2022-12-18T12:00:29;6.60;86.60
40374;DHT22;26079;45.958;12.492;2022-12-18T12:16:54;6.70;84.70
40374;DHT22;26079;45.958;12.492;2022-12-18T12:39:11;6.80;83.20
40374;DHT22;26079;45.958;12.492;2022-12-18T12:41:39;6.90;85.40
40374;DHT22;26079;45.958;12.492;2022-12-18T12:44:28;6.90;85.30
40374;DHT22;26079;45.958;12.492;2022-12-18T12:47:01;7.00;86.90
40374;DHT22;26079;45.958;12.492;2022-12-18T12:49:31;6.90;84.60
40374;DHT22;26079;45.958;12.492;2022-12-18T12:52:14;6.90;85.60
40374;DHT22;26079;45.958;12.492;2022-12-18T12:54:41;6.90;84.70
40374;DHT22;26079;45.958;12.492;2022-12-18T12:59:59;7.00;82.50
40374;DHT22;26079;45.958;12.492;2022-12-18T13:08:11;7.00;83.80
40374;DHT22;26079;45.958;12.492;2022-12-18T13:10:41;7.00;82.60
40374;DHT22;26079;45.958;12.492;2022-12-18T13:13:12;7.10;83.00
40374;DHT22;26079;45.958;12.492;2022-12-18T13:15:44;7.10;84.00
40374;DHT22;26079;45.958;12.492;2022-12-18T13:30:57;7.20;84.50
40374;DHT22;26079;45.958;12.492;2022-12-18T13:33:36;7.20;83.00
40374;DHT22;26079;45.958;12.492;2022-12-18T13:41:36;7.20;84.40
40374;DHT22;26079;45.958;12.492;2022-12-18T13:44:36;7.20;84.20
40374;DHT22;26079;45.958;12.492;2022-12-18T13:49:50;7.00;86.10
40374;DHT22;26079;45.958;12.492;2022-12-18T13:52:25;6.90;86.10
40374;DHT22;26079;45.958;12.492;2022-12-18T13:54:55;6.90;86.20
40374;DHT22;26079;45.958;12.492;2022-12-18T14:00:16;6.80;86.10
40374;DHT22;26079;45.958;12.492;2022-12-18T14:02:45;6.80;87.00
40374;DHT22;26079;45.958;12.492;2022-12-18T14:05:30;6.80;86.20
40374;DHT22;26079;45.958;12.492;2022-12-18T14:08:10;6.80;87.00
40374;DHT22;26079;45.958;12.492;2022-12-18T14:10:44;6.90;87.40
40374;DHT22;26079;45.958;12.492;2022-12-18T14:13:29;6.90;86.20
40374;DHT22;26079;45.958;12.492;2022-12-18T14:15:57;6.90;87.10
40374;DHT22;26079;45.958;12.492;2022-12-18T14:18:56;6.80;87.50
40374;DHT22;26079;45.958;12.492;2022-12-18T14:21:28;6.70;87.20
40374;DHT22;26079;45.958;12.492;2022-12-18T14:26:42;6.80;87.00
40374;DHT22;26079;45.958;12.492;2022-12-18T14:29:28;6.80;86.70
40374;DHT22;26079;45.958;12.492;2022-12-18T14:32:24;6.80;88.20
40374;DHT22;26079;45.958;12.492;2022-12-18T14:34:53;6.60;88.30
40374;DHT22;26079;45.958;12.492;2022-12-18T14:37:25;6.60;87.00
40374;DHT22;26079;45.958;12.492;2022-12-18T14:40:01;6.60;89.90
40374;DHT22;26079;45.958;12.492;2022-12-18T14:42:32;6.50;88.20
40374;DHT22;26079;45.958;12.492;2022-12-18T14:45:34;6.50;87.70
40374;DHT22;26079;45.958;12.492;2022-12-18T14:48:18;6.40;90.10
40374;DHT22;26079;45.958;12.492;2022-12-18T14:50:53;6.30;90.50
40374;DHT22;26079;45.958;12.492;2022-12-18T14:53:27;6.20;92.00
40374;DHT22;26079;45.958;12.492;2022-12-18T14:55:54;6.10;89.40
40374;DHT22;26079;45.958;12.492;2022-12-18T14:58:20;6.10;89.60
40374;DHT22;26079;45.958;12.492;2022-12-18T15:00:45;6.10;91.00
40374;DHT22;26079;45.958;12.492;2022-12-18T15:03:15;5.90;91.90
40374;DHT22;26079;45.958;12.492;2022-12-18T15:05:43;5.80;92.50
40374;DHT22;26079;45.958;12.492;2022-12-18T15:08:35;5.80;93.10
40374;DHT22;26079;45.958;12.492;2022-12-18T15:11:01;5.80;97.10
40374;DHT22;26079;45.958;12.492;2022-12-18T15:13:27;5.60;94.00
40374;DHT22;26079;45.958;12.492;2022-12-18T15:15:55;5.60;94.50
40374;DHT22;26079;45.958;12.492;2022-12-18T15:18:30;5.60;98.10
40374;DHT22;26079;45.958;12.492;2022-12-18T15:21:18;5.50;99.90
40374;DHT22;26079;45.958;12.492;2022-12-18T15:24:20;5.40;99.20
40374;DHT22;26079;45.958;12.492;2022-12-18T15:26:47;5.30;99.90
40374;DHT22;26079;45.958;12.492;2022-12-18T15:29:29;5.20;99.90
40374;DHT22;26079;45.958;12.492;2022-12-18T15:32:03;5.00;99.90
40374;DHT22;26079;45.958;12.492;2022-12-18T15:34:30;4.90;99.30
40374;DHT22;26079;45.958;12.492;2022-12-18T15:36:59;4.80;99.70
40374;DHT22;26079;45.958;12.492;2022-12-18T15:39:27;4.70;99.90
40374;DHT22;26079;45.958;12.492;2022-12-18T15:41:53;4.70;99.90
40374;DHT22;26079;45.958;12.492;2022-12-18T15:44:38;4.60;99.90
40374;DHT22;26079;45.958;12.492;2022-12-18T15:47:09;4.60;99.90
40374;DHT22;26079;45.958;12.492;2022-12-18T15:49:36;4.50;99.90
40374;DHT22;26079;45.958;12.492;2022-12-18T15:52:02;4.50;99.90
40374;DHT22;26079;45.958;12.492;2022-12-18T15:54:27;4.50;99.90
40374;DHT22;26079;45.958;12.492;2022-12-18T15:57:11;4.40;99.90
40374;DHT22;26079;45.958;12.492;2022-12-18T15:59:59;4.40;99.90
40374;DHT22;26079;45.958;12.492;2022-12-18T16:02:25;4.30;99.90
40374;DHT22;26079;45.958;12.492;2022-12-18T16:04:51;4.30;99.90
40374;DHT22;26079;45.958;12.492;2022-12-18T16:07:21;4.40;99.90
40374;DHT22;26079;45.958;12.492;2022-12-18T16:09:59;4.40;99.90
40374;DHT22;26079;45.958;12.492;2022-12-18T16:12:28;4.40;99.90
40374;DHT22;26079;45.958;12.492;2022-12-18T16:15:04;4.30;99.90
40374;DHT22;26079;45.958;12.492;2022-12-18T16:17:32;4.20;99.90
40374;DHT22;26079;45.958;12.492;2022-12-18T16:19:58;4.20;99.90
40374;DHT22;26079;45.958;12.492;2022-12-18T16:22:28;4.10;99.90
40374;DHT22;26079;45.958;12.492;2022-12-18T16:24:57;4.10;99.90
40374;DHT22;26079;45.958;12.492;2022-12-18T16:27:26;4.00;99.90
40374;DHT22;26079;45.958;12.492;2022-12-18T16:29:51;3.90;99.90
40374;DHT22;26079;45.958;12.492;2022-12-18T16:32:24;3.80;99.90
40374;DHT22;26079;45.958;12.492;2022-12-18T16:34:51;3.80;99.90
40374;DHT22;26079;45.958;12.492;2022-12-18T16:37:17;3.70;99.90
40374;DHT22;26079;45.958;12.492;2022-12-18T16:39:46;3.70;99.90
40374;DHT22;26079;45.958;12.492;2022-12-18T16:42:17;3.60;99.90
40374;DHT22;26079;45.958;12.492;2022-12-18T16:44:48;3.60;99.90
40374;DHT22;26079;45.958;12.492;2022-12-18T16:47:20;3.50;99.90
40374;DHT22;26079;45.958;12.492;2022-12-18T16:49:48;3.50;99.90
40374;DHT22;26079;45.958;12.492;2022-12-18T16:52:22;3.50;99.90
40374;DHT22;26079;45.958;12.492;2022-12-18T16:54:48;3.40;99.90
40374;DHT22;26079;45.958;12.492;2022-12-18T16:57:23;3.40;99.90
40374;DHT22;26079;45.958;12.492;2022-12-18T16:59:55;3.30;99.90
40374;DHT22;26079;45.958;12.492;2022-12-18T17:02:25;3.30;99.90
40374;DHT22;26079;45.958;12.492;2022-12-18T17:04:58;3.30;99.90
40374;DHT22;26079;45.958;12.492;2022-12-18T17:07:25;3.20;99.90
40374;DHT22;26079;45.958;12.492;2022-12-18T17:09:50;3.20;99.90
40374;DHT22;26079;45.958;12.492;2022-12-18T17:12:21;3.20;99.90
40374;DHT22;26079;45.958;12.492;2022-12-18T17:14:51;3.10;99.90
40374;DHT22;26079;45.958;12.492;2022-12-18T17:17:20;3.20;99.90
40374;DHT22;26079;45.958;12.492;2022-12-18T17:19:52;3.20;99.90
40374;DHT22;26079;45.958;12.492;2022-12-18T17:22:18;3.10;99.90
40374;DHT22;26079;45.958;12.492;2022-12-18T17:24:44;3.10;99.90
40374;DHT22;26079;45.958;12.492;2022-12-18T17:27:16;3.00;99.90
40374;DHT22;26079;45.958;12.492;2022-12-18T17:29:44;3.00;99.90
40374;DHT22;26079;45.958;12.492;2022-12-18T17:32:12;3.00;99.90
40374;DHT22;26079;45.958;12.492;2022-12-18T17:34:38;2.90;99.90
40374;DHT22;26079;45.958;12.492;2022-12-18T17:37:04;2.80;99.90
40374;DHT22;26079;45.958;12.492;2022-12-18T17:39:29;2.70;99.90
40374;DHT22;26079;45.958;12.492;2022-12-18T17:42:15;2.70;99.90
40374;DHT22;26079;45.958;12.492;2022-12-18T17:44:44;2.80;99.90
40374;DHT22;26079;45.958;12.492;2022-12-18T17:47:16;2.80;99.90
40374;DHT22;26079;45.958;12.492;2022-12-18T17:49:42;2.80;99.90
40374;DHT22;26079;45.958;12.492;2022-12-18T17:52:10;2.90;99.90